createdAt,value
2022-10-08T00:03:29.738Z,96330.78
2022-10-08T00:18:31.595Z,96321.66
2022-10-08T00:33:36.041Z,96320.09
2022-10-08T00:48:38.593Z,96322.16
2022-10-08T01:03:40.433Z,96308.03
2022-10-08T01:18:59.715Z,96303.00
2022-10-08T01:34:02.131Z,96309.78
2022-10-08T01:49:06.851Z,96308.38
2022-10-08T02:04:27.531Z,96300.03
2022-10-08T02:19:30.598Z,96294.66
2022-10-08T02:34:47.962Z,96298.81
2022-10-08T02:49:53.586Z,96291.72
2022-10-08T03:04:56.611Z,96301.28
2022-10-08T03:20:00.687Z,96308.69
2022-10-08T03:35:02.626Z,96312.44
2022-10-08T03:50:04.820Z,96312.69
2022-10-08T04:05:06.832Z,96327.56
2022-10-08T04:20:09.041Z,96336.41
2022-10-08T04:35:10.922Z,96332.06
2022-10-08T04:50:12.899Z,96350.72
2022-10-08T05:05:15.586Z,96345.13
2022-10-08T05:20:17.546Z,96357.88
2022-10-08T05:35:19.507Z,96370.59
2022-10-08T05:50:21.386Z,96382.53
2022-10-08T06:05:23.307Z,96398.47
2022-10-08T06:20:29.708Z,96408.47
2022-10-08T06:35:33.775Z,96416.84
2022-10-08T06:50:35.666Z,96429.31
2022-10-08T07:05:37.577Z,96443.06
2022-10-08T07:20:39.628Z,96463.00
2022-10-08T07:35:41.539Z,96466.03
2022-10-08T07:50:43.405Z,96475.53
2022-10-08T08:05:45.380Z,96475.69
2022-10-08T08:20:47.260Z,96492.13
2022-10-08T08:35:52.497Z,96496.38
2022-10-08T08:50:55.368Z,96497.50
2022-10-08T09:05:57.756Z,96506.97
2022-10-08T09:20:59.639Z,96511.97
2022-10-08T09:36:01.525Z,96529.19
2022-10-08T09:51:07.252Z,96528.84
2022-10-08T10:06:09.123Z,96533.56
2022-10-08T10:21:13.380Z,96530.31
2022-10-08T10:36:15.331Z,96530.19
2022-10-08T10:51:23.299Z,96544.47
2022-10-08T11:06:25.294Z,96543.44
2022-10-08T11:21:39.067Z,96535.47
2022-10-08T11:36:43.012Z,96543.59
2022-10-08T11:51:45.492Z,96538.97
2022-10-08T12:06:47.681Z,96556.88
2022-10-08T12:21:49.760Z,96540.09
2022-10-08T12:36:51.595Z,96537.50
2022-10-08T12:52:12.230Z,96556.44
2022-10-08T13:07:30.705Z,96558.53
2022-10-08T13:22:32.653Z,96560.25
2022-10-08T13:37:38.128Z,96560.28
2022-10-08T13:52:44.246Z,96555.00
2022-10-08T14:07:46.495Z,96552.88
2022-10-08T14:22:48.589Z,96547.19
2022-10-08T14:37:51.294Z,96549.13
2022-10-08T14:52:53.283Z,96555.81
2022-10-08T15:07:55.151Z,96567.22
2022-10-08T15:22:57.067Z,96571.91
2022-10-08T15:37:58.943Z,96568.22
2022-10-08T15:53:00.833Z,96594.13
2022-10-08T16:08:02.869Z,96607.31
2022-10-08T16:23:04.735Z,96617.47
2022-10-08T16:38:06.615Z,96620.63
2022-10-08T16:53:08.773Z,96644.03
2022-10-08T17:08:10.640Z,96668.44
2022-10-08T17:23:12.530Z,96691.03
2022-10-08T17:38:14.433Z,96709.28
2022-10-08T17:53:16.307Z,96723.72
2022-10-08T18:08:19.179Z,96745.81
2022-10-08T18:23:21.114Z,96760.69
2022-10-08T18:38:22.993Z,96768.38
2022-10-08T18:53:24.877Z,96792.00
2022-10-08T19:08:26.769Z,96798.53
2022-10-08T19:23:30.582Z,96811.41
2022-10-08T19:38:32.573Z,96831.19
2022-10-08T19:53:34.552Z,96852.66
2022-10-08T20:08:36.550Z,96860.94
2022-10-08T20:23:38.706Z,96869.31
2022-10-08T20:38:40.842Z,96877.16
2022-10-08T20:53:49.629Z,96880.91
2022-10-08T21:08:52.020Z,96886.81
2022-10-08T21:23:53.914Z,96887.66
2022-10-08T21:38:57.710Z,96897.50
2022-10-08T21:54:00.233Z,96901.09
2022-10-08T22:09:02.168Z,96899.13
2022-10-08T22:24:04.249Z,96895.38
2022-10-08T22:39:06.517Z,96887.25
2022-10-08T22:54:10.042Z,96894.31
2022-10-08T23:09:12.146Z,96902.81
2022-10-08T23:24:14.062Z,96900.63
2022-10-08T23:39:18.741Z,96906.25
2022-10-08T23:54:20.612Z,96894.63
